Time;durP1;ratioP1;P1;durP2;ratioP2;P2;SDS_P1;SDS_P2;PMS_P1;PMS_P2;Temp;Humidity;BMP_temperature;BMP_pressure;BME280_temperature;BME280_humidity;BME280_pressure;Samples;Min_cycle;Max_cycle;Signal;HPM_P1;HPM_P2
2022/12/22 14:48:30;;;;;;;27.58;8.98;;;7.80;99.90;;;;;;5119653;27;20135;-73
2022/12/22 14:50:56;;;;;;;28.45;10.32;;;7.60;99.90;;;;;;5123223;27;20019;-74
2022/12/22 14:53:49;;;;;;;22.35;9.65;;;7.60;99.90;;;;;;5083012;28;20031;-73
2022/12/22 14:56:19;;;;;;;27.30;9.85;;;7.70;99.90;;;;;;5089105;28;20036;-73
2022/12/22 14:58:47;;;;;;;23.98;9.95;;;7.60;99.90;;;;;;5115498;27;20019;-74
2022/12/22 15:01:17;;;;;;;29.63;11.20;;;7.60;99.90;;;;;;5119129;27;20149;-76
2022/12/22 15:03:44;;;;;;;22.23;9.65;;;7.60;99.90;;;;;;5111236;27;20019;-73
2022/12/22 15:06:25;;;;;;;26.02;11.27;;;7.60;99.90;;;;;;5116756;28;20027;-75
2022/12/22 15:09:15;;;;;;;22.80;9.27;;;7.60;99.90;;;;;;5095111;27;20024;-74
2022/12/22 15:11:55;;;;;;;24.33;10.07;;;7.60;99.90;;;;;;5089306;27;20088;-74
2022/12/22 15:14:24;;;;;;;19.92;8.77;;;7.60;99.90;;;;;;5106649;27;20057;-73
2022/12/22 15:16:55;;;;;;;25.45;10.45;;;7.60;99.90;;;;;;5103287;28;20083;-72
2022/12/22 15:19:21;;;;;;;21.33;9.45;;;7.60;99.90;;;;;;5096995;28;20700;-73
2022/12/22 15:21:51;;;;;;;22.38;10.75;;;7.50;99.90;;;;;;5119392;27;20027;-73
2022/12/22 15:24:17;;;;;;;27.35;11.38;;;7.50;99.90;;;;;;5085114;28;20035;-73
2022/12/22 15:26:44;;;;;;;20.83;9.68;;;7.50;99.90;;;;;;5087497;27;20076;-72
2022/12/22 15:29:10;;;;;;;20.80;8.57;;;7.50;99.90;;;;;;5101203;28;20042;-73
2022/12/22 15:31:37;;;;;;;21.63;9.35;;;7.50;99.90;;;;;;5101531;27;20110;-74
2022/12/22 15:34:09;;;;;;;22.05;9.55;;;7.50;99.90;;;;;;5094974;28;20023;-73
2022/12/22 15:36:35;;;;;;;24.48;9.75;;;7.50;99.90;;;;;;5125445;27;20079;-74
2022/12/22 15:39:01;;;;;;;28.33;11.13;;;7.50;99.90;;;;;;5107146;28;20420;-73
2022/12/22 15:41:27;;;;;;;20.02;9.32;;;7.50;99.90;;;;;;5097741;28;20042;-74
2022/12/22 15:43:53;;;;;;;24.27;9.68;;;7.50;99.90;;;;;;5094209;27;20035;-74
2022/12/22 15:46:20;;;;;;;18.75;8.20;;;7.40;99.90;;;;;;5079376;28;20039;-74
2022/12/22 15:48:47;;;;;;;22.38;10.48;;;7.40;99.90;;;;;;5110991;27;20027;-74
2022/12/22 15:51:25;;;;;;;23.30;9.40;;;7.40;99.90;;;;;;5105599;28;20058;-75
2022/12/22 15:53:53;;;;;;;22.75;8.60;;;7.40;99.90;;;;;;5113054;27;20399;-75
2022/12/22 15:56:22;;;;;;;18.23;8.95;;;7.30;99.90;;;;;;5124924;27;20027;-73
2022/12/22 15:58:48;;;;;;;20.27;8.70;;;7.40;99.90;;;;;;5113482;28;20034;-72
2022/12/22 16:01:15;;;;;;;20.20;8.60;;;7.40;99.90;;;;;;5082743;28;20020;-75
2022/12/22 16:03:41;;;;;;;24.95;10.18;;;7.40;99.90;;;;;;5104584;28;20035;-73
2022/12/22 16:06:12;;;;;;;24.77;11.10;;;7.40;99.90;;;;;;5084691;28;20051;-72
2022/12/22 16:08:40;;;;;;;29.27;10.82;;;7.30;99.90;;;;;;5088589;28;20019;-72
2022/12/22 16:11:07;;;;;;;28.17;11.18;;;7.30;99.90;;;;;;5088577;28;20024;-74
2022/12/22 16:13:35;;;;;;;32.08;12.40;;;7.30;99.90;;;;;;5102827;27;20047;-71
2022/12/22 16:16:02;;;;;;;27.75;11.38;;;7.30;99.90;;;;;;5089167;28;20076;-73
2022/12/22 16:18:28;;;;;;;26.05;12.70;;;7.30;99.90;;;;;;5086219;28;20019;-73
2022/12/22 16:20:55;;;;;;;27.77;11.10;;;7.20;99.90;;;;;;5082872;28;20034;-71
2022/12/22 16:23:25;;;;;;;29.10;11.75;;;7.20;99.90;;;;;;5082020;28;20024;-72
2022/12/22 16:25:53;;;;;;;31.25;11.43;;;7.20;99.90;;;;;;5087129;27;20023;-72
2022/12/22 16:28:23;;;;;;;29.98;11.65;;;7.20;99.90;;;;;;5090343;28;20143;-71
2022/12/22 16:30:50;;;;;;;26.42;11.80;;;7.20;99.90;;;;;;5101891;28;20578;-72
2022/12/22 16:33:16;;;;;;;26.52;10.93;;;7.20;99.90;;;;;;5098993;28;20171;-72
2022/12/22 16:35:42;;;;;;;32.22;11.68;;;7.20;99.90;;;;;;5108171;28;20051;-71
2022/12/22 16:38:09;;;;;;;27.02;10.98;;;7.20;99.90;;;;;;5103993;28;20442;-71
2022/12/22 16:40:55;;;;;;;21.92;10.75;;;7.20;99.90;;;;;;5088514;28;20031;-72
2022/12/22 16:43:34;;;;;;;25.67;11.23;;;7.20;99.90;;;;;;5085287;28;20274;-72
2022/12/22 16:46:04;;;;;;;22.55;10.65;;;7.20;99.90;;;;;;5086683;28;20023;-72
2022/12/22 16:48:44;;;;;;;23.70;10.85;;;7.20;99.90;;;;;;5105258;28;20034;-72
2022/12/22 16:51:16;;;;;;;25.60;10.88;;;7.20;99.90;;;;;;5106702;28;20080;-71
2022/12/22 16:53:41;;;;;;;28.02;10.38;;;7.20;99.90;;;;;;5109845;28;20023;-72
2022/12/22 16:56:14;;;;;;;21.77;10.95;;;7.20;99.90;;;;;;5087075;28;20031;-72
2022/12/22 16:58:40;;;;;;;26.27;9.57;;;7.20;99.90;;;;;;5108745;28;20075;-72
2022/12/22 17:01:05;;;;;;;23.92;9.38;;;7.10;99.90;;;;;;5107736;28;20421;-72
2022/12/22 17:03:31;;;;;;;22.13;9.68;;;7.20;99.90;;;;;;5086499;28;20419;-72
2022/12/22 17:05:59;;;;;;;20.25;9.15;;;7.10;99.90;;;;;;5073404;28;20019;-72
2022/12/22 17:08:33;;;;;;;19.23;9.20;;;7.20;99.90;;;;;;5106844;28;20069;-73
2022/12/22 17:11:01;;;;;;;23.58;8.90;;;7.20;99.90;;;;;;5067831;28;20044;-73
2022/12/22 17:13:28;;;;;;;23.35;9.73;;;7.20;99.90;;;;;;5079140;28;20028;-73
2022/12/22 17:15:53;;;;;;;22.77;9.13;;;7.20;99.90;;;;;;5100929;28;20023;-73
2022/12/22 17:18:22;;;;;;;31.00;9.77;;;7.20;99.90;;;;;;5072547;28;20084;-73
2022/12/22 17:20:51;;;;;;;25.00;8.75;;;7.20;99.90;;;;;;5070191;28;20532;-74
2022/12/22 17:23:38;;;;;;;19.52;8.80;;;7.20;99.90;;;;;;5071898;28;20028;-73
2022/12/22 17:26:10;;;;;;;20.95;9.60;;;7.20;99.90;;;;;;5102645;28;20036;-74
2022/12/22 17:28:38;;;;;;;26.30;8.77;;;7.20;99.90;;;;;;5072892;28;20055;-74
2022/12/22 17:31:04;;;;;;;22.60;8.98;;;7.20;99.90;;;;;;5107048;28;20031;-76
2022/12/22 17:33:31;;;;;;;19.88;8.48;;;7.20;99.90;;;;;;5088087;28;20028;-73
2022/12/22 17:35:58;;;;;;;31.02;9.48;;;7.20;99.90;;;;;;5111311;28;20028;-74
2022/12/22 17:38:26;;;;;;;22.13;9.27;;;7.20;99.90;;;;;;5113430;28;20099;-74
2022/12/22 17:40:52;;;;;;;18.23;8.15;;;7.20;99.90;;;;;;5107025;28;20024;-74
2022/12/22 17:43:19;;;;;;;23.38;9.18;;;7.20;99.90;;;;;;5108418;28;20106;-73
2022/12/22 17:45:46;;;;;;;20.73;9.05;;;7.20;99.90;;;;;;5101668;28;20038;-74
2022/12/22 17:48:13;;;;;;;23.90;8.85;;;7.20;99.90;;;;;;5098450;28;20031;-72
2022/12/22 17:50:41;;;;;;;18.13;8.55;;;7.20;99.90;;;;;;5095763;28;20050;-71
2022/12/22 17:53:16;;;;;;;19.65;8.15;;;7.10;99.90;;;;;;5093151;28;20027;-73
2022/12/22 17:55:43;;;;;;;841.10;258.02;;;7.20;99.90;;;;;;5086530;28;20032;-73
2022/12/22 17:58:13;;;;;;;1273.93;716.63;;;7.20;99.90;;;;;;5088247;28;20123;-73
2022/12/22 18:00:39;;;;;;;431.52;230.48;;;7.30;99.90;;;;;;5069794;28;20024;-72
2022/12/22 18:03:05;;;;;;;393.20;251.88;;;7.30;99.90;;;;;;5105519;28;20023;-73
2022/12/22 18:05:39;;;;;;;77.63;59.35;;;7.20;99.90;;;;;;5068803;28;20031;-73
2022/12/22 18:08:10;;;;;;;28.48;13.00;;;7.20;99.90;;;;;;5105996;28;20023;-74
2022/12/22 18:10:38;;;;;;;23.45;9.60;;;7.40;99.90;;;;;;5082307;28;20024;-74
2022/12/22 18:13:12;;;;;;;28.55;10.05;;;7.30;99.90;;;;;;5090171;28;20050;-74
2022/12/22 18:15:38;;;;;;;25.60;9.55;;;7.30;99.90;;;;;;5102950;28;20555;-73
2022/12/22 18:18:14;;;;;;;21.90;9.38;;;7.20;99.90;;;;;;5102392;28;20114;-75
2022/12/22 18:20:40;;;;;;;21.35;9.05;;;7.20;99.90;;;;;;5086255;28;20028;-73
2022/12/22 18:23:31;;;;;;;25.83;9.77;;;7.20;99.90;;;;;;5104471;28;20024;-71
2022/12/22 18:25:57;;;;;;;23.10;9.90;;;7.20;99.90;;;;;;5105856;28;20038;-72
2022/12/22 18:28:23;;;;;;;26.15;9.35;;;7.20;99.90;;;;;;5085563;28;20118;-72
2022/12/22 18:30:49;;;;;;;25.77;10.35;;;7.10;99.90;;;;;;5087102;28;20114;-72
2022/12/22 18:33:14;;;;;;;28.90;10.93;;;7.30;99.90;;;;;;5103985;28;20031;-72
2022/12/22 18:35:42;;;;;;;25.45;10.32;;;7.20;99.90;;;;;;5102637;28;20024;-72
2022/12/22 18:38:29;;;;;;;28.77;11.18;;;7.20;99.90;;;;;;5102141;28;20502;-73
2022/12/22 18:40:55;;;;;;;23.42;10.50;;;7.20;99.90;;;;;;5080721;28;20045;-73
2022/12/22 18:43:22;;;;;;;28.00;11.40;;;7.10;99.90;;;;;;5105921;28;20491;-74
2022/12/22 18:45:48;;;;;;;28.42;11.50;;;7.10;99.90;;;;;;5086750;28;20054;-73
2022/12/22 18:48:14;;;;;;;19.60;9.88;;;7.10;99.90;;;;;;5069505;28;20031;-72
2022/12/22 18:50:40;;;;;;;24.60;10.50;;;7.10;99.90;;;;;;5083766;28;20024;-74
2022/12/22 18:53:21;;;;;;;23.65;10.70;;;7.10;99.90;;;;;;5083756;28;20069;-72
2022/12/22 18:55:46;;;;;;;21.83;11.25;;;7.10;99.90;;;;;;5084301;28;20542;-75
2022/12/22 18:58:14;;;;;;;34.28;12.32;;;7.10;99.90;;;;;;5066766;28;20040;-73
2022/12/22 19:00:40;;;;;;;30.17;11.52;;;7.10;99.90;;;;;;5101296;28;20031;-73
2022/12/22 19:03:19;;;;;;;27.00;11.13;;;7.10;99.90;;;;;;5085876;28;20032;-73
2022/12/22 19:05:46;;;;;;;27.50;11.45;;;7.10;99.90;;;;;;5078703;28;20402;-73
2022/12/22 19:08:19;;;;;;;25.30;11.05;;;7.10;99.90;;;;;;5099906;28;20115;-73
2022/12/22 19:10:50;;;;;;;29.45;11.10;;;7.10;99.90;;;;;;5100354;28;20461;-73
2022/12/22 19:13:19;;;;;;;23.60;11.23;;;7.10;99.90;;;;;;5102972;28;20035;-73
2022/12/22 19:15:45;;;;;;;28.77;11.57;;;7.10;99.90;;;;;;5101506;28;20102;-74
2022/12/22 19:18:15;;;;;;;28.90;12.82;;;7.10;99.90;;;;;;5103014;28;20198;-74
2022/12/22 19:20:41;;;;;;;28.15;11.70;;;7.10;99.90;;;;;;5116629;28;20036;-73
2022/12/22 19:23:11;;;;;;;26.48;10.85;;;7.10;99.90;;;;;;5087719;28;20027;-73
2022/12/22 19:25:36;;;;;;;25.50;10.95;;;7.10;99.90;;;;;;5074914;28;20430;-73
2022/12/22 19:28:14;;;;;;;31.25;11.00;;;7.10;99.90;;;;;;5100404;28;20036;-73
2022/12/22 19:30:41;;;;;;;27.92;10.80;;;7.00;99.90;;;;;;5101864;28;20023;-73
2022/12/22 19:33:22;;;;;;;29.05;10.60;;;7.00;99.90;;;;;;5083940;28;20047;-72
2022/12/22 19:35:48;;;;;;;26.33;10.93;;;7.00;99.90;;;;;;5107473;27;20503;-73
2022/12/22 19:38:18;;;;;;;27.38;11.00;;;7.00;99.90;;;;;;5094890;28;20046;-72
2022/12/22 19:40:45;;;;;;;27.30;10.25;;;7.00;99.90;;;;;;5083456;28;20127;-72
2022/12/22 19:43:11;;;;;;;24.45;11.52;;;7.00;99.90;;;;;;5082227;27;20105;-71
2022/12/22 19:45:36;;;;;;;26.52;11.35;;;7.00;99.90;;;;;;5081503;28;20027;-72
2022/12/22 19:48:04;;;;;;;20.67;10.15;;;7.00;99.90;;;;;;5101631;27;20399;-72
2022/12/22 19:50:30;;;;;;;30.40;11.43;;;7.00;99.90;;;;;;5100673;28;20016;-71
2022/12/22 19:53:00;;;;;;;27.20;12.40;;;7.00;99.90;;;;;;5086799;28;20024;-71
2022/12/22 19:55:31;;;;;;;25.02;10.73;;;7.00;99.90;;;;;;5104188;28;20028;-71
2022/12/22 19:57:57;;;;;;;27.92;11.30;;;7.00;99.90;;;;;;5084574;28;20027;-72
2022/12/22 20:00:25;;;;;;;26.25;11.40;;;7.00;99.90;;;;;;5084850;28;20544;-71
2022/12/22 20:02:56;;;;;;;30.17;11.38;;;7.00;99.90;;;;;;5083200;28;20651;-73
2022/12/22 20:05:21;;;;;;;29.42;11.40;;;7.00;99.90;;;;;;5055620;28;20054;-73
2022/12/22 20:07:54;;;;;;;24.73;11.80;;;7.00;99.90;;;;;;5081139;28;20032;-72
2022/12/22 20:10:21;;;;;;;27.10;12.38;;;7.00;99.90;;;;;;5082003;28;20213;-73
2022/12/22 20:12:50;;;;;;;26.55;12.40;;;7.00;99.90;;;;;;5072408;28;20032;-74
2022/12/22 20:15:18;;;;;;;30.05;11.38;;;7.00;99.90;;;;;;5091816;28;20039;-74
2022/12/22 20:17:49;;;;;;;33.42;11.90;;;7.00;99.90;;;;;;5080058;28;20434;-75
2022/12/22 20:20:18;;;;;;;28.77;12.85;;;7.00;99.90;;;;;;5106667;28;20038;-73
2022/12/22 20:22:48;;;;;;;26.48;11.77;;;7.00;99.90;;;;;;5103440;27;20028;-73
2022/12/22 20:25:20;;;;;;;27.00;11.40;;;7.00;99.90;;;;;;5073418;28;20548;-73
2022/12/22 20:27:47;;;;;;;26.67;12.20;;;7.10;99.90;;;;;;5086997;28;20129;-73
2022/12/22 20:30:22;;;;;;;25.33;11.55;;;7.00;99.90;;;;;;5092494;28;20163;-73
2022/12/22 20:32:48;;;;;;;24.75;11.25;;;7.00;99.90;;;;;;5108809;27;20016;-73
2022/12/22 20:35:15;;;;;;;35.58;12.90;;;7.00;99.90;;;;;;5090614;27;20377;-72
2022/12/22 20:37:40;;;;;;;28.10;12.98;;;7.00;99.90;;;;;;5109886;27;22063;-75
2022/12/22 20:40:23;;;;;;;30.95;12.57;;;7.10;99.90;;;;;;5086807;28;20027;-73
2022/12/22 20:42:49;;;;;;;28.48;12.55;;;7.10;99.90;;;;;;5075907;28;20038;-72
2022/12/22 20:45:15;;;;;;;27.15;13.20;;;7.00;99.90;;;;;;5085599;28;20082;-74
2022/12/22 20:47:41;;;;;;;31.10;13.02;;;7.00;99.90;;;;;;5087235;28;20095;-74
2022/12/22 20:50:22;;;;;;;35.25;12.95;;;7.00;99.90;;;;;;5085999;27;20020;-72
2022/12/22 20:52:48;;;;;;;;;;;7.00;99.90;;;;;;5098725;27;20024;-72
2022/12/22 20:55:17;;;;;;;38.13;13.75;;;7.00;99.90;;;;;;5084170;27;19912;-72
2022/12/22 20:57:44;;;;;;;28.20;12.75;;;7.00;99.90;;;;;;5066706;28;20080;-73
2022/12/22 21:00:21;;;;;;;34.13;14.75;;;7.00;99.90;;;;;;5105817;27;20044;-73
2022/12/22 21:02:50;;;;;;;30.15;14.15;;;7.00;99.90;;;;;;5084148;28;20028;-73
2022/12/22 21:05:16;;;;;;;40.92;16.70;;;7.00;99.90;;;;;;5091723;28;20042;-72
2022/12/22 21:07:44;;;;;;;605.83;327.38;;;6.90;99.90;;;;;;5100409;27;20530;-72
2022/12/22 21:10:17;;;;;;;365.30;171.95;;;6.90;99.90;;;;;;5085114;28;20028;-72
2022/12/22 21:12:43;;;;;;;150.20;121.25;;;6.90;99.90;;;;;;5087349;28;20034;-72
2022/12/22 21:15:19;;;;;;;41.83;22.90;;;6.90;99.90;;;;;;5085518;28;20031;-72
2022/12/22 21:17:45;;;;;;;32.50;15.48;;;6.90;99.90;;;;;;5086351;28;20040;-71
2022/12/22 21:20:24;;;;;;;32.50;15.27;;;6.90;99.90;;;;;;5100514;28;20494;-72
2022/12/22 21:22:50;;;;;;;33.42;14.60;;;6.90;99.90;;;;;;5083929;28;20122;-72
2022/12/22 21:25:16;;;;;;;35.53;15.25;;;6.90;99.90;;;;;;5087039;28;20039;-72
2022/12/22 21:27:50;;;;;;;35.47;15.25;;;6.90;99.90;;;;;;5084451;28;20735;-71
2022/12/22 21:30:24;;;;;;;31.25;15.02;;;6.90;99.90;;;;;;5109482;28;20032;-71
2022/12/22 21:32:50;;;;;;;33.13;15.27;;;6.90;99.90;;;;;;5068922;28;20111;-72
2022/12/22 21:35:23;;;;;;;35.50;14.50;;;7.00;99.90;;;;;;5105113;28;20420;-73
2022/12/22 21:37:51;;;;;;;30.73;14.38;;;7.00;99.90;;;;;;5084484;28;21216;-73
2022/12/22 21:40:35;;;;;;;34.10;15.43;;;7.00;99.90;;;;;;5076218;28;20513;-73
2022/12/22 21:43:00;;;;;;;30.67;15.05;;;7.00;99.90;;;;;;5104447;28;20114;-73
2022/12/22 21:45:30;;;;;;;37.95;16.00;;;7.00;99.90;;;;;;5088405;28;20558;-75
2022/12/22 21:48:00;;;;;;;40.20;16.33;;;7.00;99.90;;;;;;5086089;28;20040;-73
2022/12/22 21:50:31;;;;;;;34.53;14.73;;;7.00;99.90;;;;;;5085890;28;20111;-73
2022/12/22 21:52:57;;;;;;;36.95;15.90;;;7.00;99.90;;;;;;5085762;28;20024;-72
2022/12/22 21:55:28;;;;;;;33.55;16.25;;;7.00;99.90;;;;;;5087489;28;20065;-74
2022/12/22 21:57:55;;;;;;;38.20;16.10;;;7.00;99.90;;;;;;5086175;28;20398;-73
2022/12/22 22:00:21;;;;;;;35.22;15.57;;;7.00;99.90;;;;;;5085912;28;20032;-73
2022/12/22 22:02:48;;;;;;;35.45;16.52;;;7.00;99.90;;;;;;5104893;28;20537;-73
2022/12/22 22:05:24;;;;;;;35.90;16.38;;;7.00;99.90;;;;;;5102580;28;20032;-73
2022/12/22 22:07:50;;;;;;;34.40;16.27;;;7.00;99.90;;;;;;5086360;28;20143;-72
2022/12/22 22:10:17;;;;;;;35.17;15.65;;;7.00;99.90;;;;;;5085940;28;20065;-73
2022/12/22 22:12:44;;;;;;;35.75;17.35;;;7.00;99.90;;;;;;5105318;28;20020;-73
2022/12/22 22:15:11;;;;;;;36.90;16.75;;;7.00;99.90;;;;;;5087179;28;20137;-73
2022/12/22 22:17:36;;;;;;;36.03;16.45;;;7.00;99.90;;;;;;5104351;28;20074;-73
2022/12/22 22:20:04;;;;;;;34.65;15.45;;;7.00;99.90;;;;;;5101442;28;20444;-72
2022/12/22 22:22:30;;;;;;;34.97;16.98;;;7.00;99.90;;;;;;5087452;28;21416;-72
2022/12/22 22:24:56;;;;;;;1765.40;811.15;;;7.00;99.90;;;;;;5084247;28;20492;-72
2022/12/22 22:27:21;;;;;;;950.63;469.73;;;7.10;99.90;;;;;;5086442;28;20091;-73
2022/12/22 22:29:47;;;;;;;341.25;188.77;;;7.10;99.90;;;;;;5070819;28;20015;-73
2022/12/22 22:32:13;;;;;;;98.03;60.28;;;7.10;99.90;;;;;;5081685;28;20086;-72
2022/12/22 22:34:39;;;;;;;40.28;19.98;;;7.10;99.90;;;;;;5083335;28;20055;-72
2022/12/22 22:37:05;;;;;;;36.50;18.17;;;7.30;99.90;;;;;;5084349;28;20024;-73
2022/12/22 22:39:31;;;;;;;31.58;17.02;;;7.20;99.90;;;;;;5086173;28;20027;-73
2022/12/22 22:41:56;;;;;;;37.90;17.45;;;7.20;99.90;;;;;;5086253;28;20054;-71
2022/12/22 22:44:22;;;;;;;38.00;18.42;;;7.20;99.90;;;;;;5087602;28;20630;-72
2022/12/22 22:46:48;;;;;;;38.50;19.35;;;7.10;99.90;;;;;;5091304;28;20119;-72
2022/12/22 22:49:13;;;;;;;32.97;16.45;;;7.10;99.90;;;;;;5090762;28;20195;-72
2022/12/22 22:51:41;;;;;;;46.30;17.70;;;7.10;99.90;;;;;;5104698;28;20028;-73
2022/12/22 22:54:10;;;;;;;38.08;17.67;;;7.10;99.90;;;;;;5071020;28;20562;-72
2022/12/22 22:56:37;;;;;;;39.10;17.15;;;7.10;99.90;;;;;;5112327;28;20023;-72
2022/12/22 22:59:04;;;;;;;38.65;19.00;;;7.10;99.90;;;;;;5090142;28;20108;-72
2022/12/22 23:01:30;;;;;;;38.80;19.35;;;7.10;99.90;;;;;;5092258;28;20031;-72
2022/12/22 23:03:55;;;;;;;46.17;19.17;;;7.00;99.90;;;;;;5112621;28;20038;-73
2022/12/22 23:06:21;;;;;;;39.30;18.70;;;7.00;99.90;;;;;;5111691;28;20098;-73
2022/12/22 23:08:48;;;;;;;38.67;18.10;;;7.00;99.90;;;;;;5113854;28;20043;-72
2022/12/22 23:11:14;;;;;;;42.20;18.90;;;7.00;99.90;;;;;;5119309;28;20061;-73
2022/12/22 23:13:41;;;;;;;35.78;18.30;;;7.00;99.90;;;;;;5080747;28;20028;-72
2022/12/22 23:16:07;;;;;;;38.72;18.45;;;6.90;99.90;;;;;;5094052;28;20113;-75
2022/12/22 23:18:33;;;;;;;43.80;19.42;;;6.90;99.90;;;;;;5094244;28;20027;-74
2022/12/22 23:21:00;;;;;;;35.95;17.77;;;6.90;99.90;;;;;;5076761;28;20505;-73
2022/12/22 23:23:27;;;;;;;40.95;19.17;;;7.00;99.90;;;;;;5086898;28;20526;-73
2022/12/22 23:25:53;;;;;;;42.50;19.52;;;7.00;99.90;;;;;;5091699;28;20543;-73
2022/12/22 23:28:19;;;;;;;40.17;19.60;;;6.90;99.90;;;;;;5091250;28;20035;-73
2022/12/22 23:30:48;;;;;;;43.03;20.25;;;7.00;99.90;;;;;;5108659;28;20028;-72
2022/12/22 23:33:14;;;;;;;38.65;19.60;;;7.00;99.90;;;;;;5086610;28;20052;-74
2022/12/22 23:35:41;;;;;;;41.60;20.10;;;7.00;99.90;;;;;;5109593;28;20035;-74
2022/12/22 23:38:08;;;;;;;45.28;20.77;;;7.00;99.90;;;;;;5073470;28;20027;-73
2022/12/22 23:40:35;;;;;;;40.83;19.83;;;7.00;99.90;;;;;;5108743;28;20498;-73
2022/12/22 23:43:01;;;;;;;39.03;20.00;;;7.00;99.90;;;;;;5109114;28;20107;-73
2022/12/22 23:45:28;;;;;;;43.00;20.88;;;7.00;99.90;;;;;;5090231;28;20087;-73
2022/12/22 23:47:54;;;;;;;40.03;19.63;;;7.00;99.90;;;;;;5091802;28;20518;-73
2022/12/22 23:50:20;;;;;;;41.17;19.15;;;7.00;99.90;;;;;;5092245;28;20028;-73
2022/12/22 23:52:49;;;;;;;41.13;20.33;;;7.00;99.90;;;;;;5106262;28;20034;-73
2022/12/22 23:55:15;;;;;;;34.17;18.30;;;7.00;99.90;;;;;;5110975;28;20446;-74
2022/12/22 23:57:41;;;;;;;36.72;18.95;;;7.10;99.90;;;;;;5106419;28;20027;-73
